sensor_id;sensor_type;location;lat;lon;timestamp;pressure;altitude;pressure_sealevel;temperature;humidity
6345;BME280;3205;42.666;23.264;2023-08-01T00:02:12;94122.38;;;21.05;100.00
6345;BME280;3205;42.666;23.264;2023-08-01T00:04:38;94127.00;;;21.04;100.00
6345;BME280;3205;42.666;23.264;2023-08-01T00:07:05;94125.84;;;21.05;100.00
6345;BME280;3205;42.666;23.264;2023-08-01T00:09:31;94121.25;;;21.02;100.00
6345;BME280;3205;42.666;23.264;2023-08-01T00:11:57;94122.06;;;20.99;100.00
6345;BME280;3205;42.666;23.264;2023-08-01T00:14:24;94125.97;;;20.95;100.00
6345;BME280;3205;42.666;23.264;2023-08-01T00:16:50;94119.81;;;20.94;100.00
6345;BME280;3205;42.666;23.264;2023-08-01T00:19:16;94128.22;;;21.00;100.00
6345;BME280;3205;42.666;23.264;2023-08-01T00:21:42;94122.00;;;21.03;100.00
6345;BME280;3205;42.666;23.264;2023-08-01T00:24:12;94109.41;;;21.00;100.00
6345;BME280;3205;42.666;23.264;2023-08-01T00:26:38;94109.75;;;21.02;100.00
6345;BME280;3205;42.666;23.264;2023-08-01T00:29:04;94117.09;;;20.98;100.00
6345;BME280;3205;42.666;23.264;2023-08-01T00:31:30;94110.22;;;20.93;100.00
6345;BME280;3205;42.666;23.264;2023-08-01T00:33:56;94112.97;;;20.90;100.00
6345;BME280;3205;42.666;23.264;2023-08-01T00:36:23;94114.81;;;20.96;100.00
6345;BME280;3205;42.666;23.264;2023-08-01T00:38:49;94115.88;;;21.02;100.00
6345;BME280;3205;42.666;23.264;2023-08-01T00:41:16;94115.56;;;20.97;100.00
6345;BME280;3205;42.666;23.264;2023-08-01T00:43:42;94119.06;;;20.94;100.00
6345;BME280;3205;42.666;23.264;2023-08-01T00:46:08;94108.69;;;20.92;100.00
6345;BME280;3205;42.666;23.264;2023-08-01T00:48:35;94119.44;;;20.92;100.00
6345;BME280;3205;42.666;23.264;2023-08-01T00:51:04;94117.59;;;20.90;100.00
6345;BME280;3205;42.666;23.264;2023-08-01T00:53:31;94107.22;;;20.92;100.00
6345;BME280;3205;42.666;23.264;2023-08-01T00:55:58;94102.72;;;20.82;100.00
6345;BME280;3205;42.666;23.264;2023-08-01T00:58:25;94100.72;;;20.86;100.00
6345;BME280;3205;42.666;23.264;2023-08-01T01:00:51;94104.56;;;20.88;100.00
6345;BME280;3205;42.666;23.264;2023-08-01T01:03:18;94104.66;;;20.81;100.00
6345;BME280;3205;42.666;23.264;2023-08-01T01:05:49;94100.72;;;20.86;100.00
6345;BME280;3205;42.666;23.264;2023-08-01T01:08:19;94100.44;;;20.80;100.00
6345;BME280;3205;42.666;23.264;2023-08-01T01:10:45;94112.25;;;20.86;100.00
6345;BME280;3205;42.666;23.264;2023-08-01T01:13:12;94106.84;;;20.90;100.00
6345;BME280;3205;42.666;23.264;2023-08-01T01:15:39;94098.31;;;20.94;100.00
6345;BME280;3205;42.666;23.264;2023-08-01T01:18:05;94094.78;;;21.01;100.00
6345;BME280;3205;42.666;23.264;2023-08-01T01:20:34;94084.38;;;21.03;100.00
6345;BME280;3205;42.666;23.264;2023-08-01T01:23:01;94097.44;;;21.04;100.00
6345;BME280;3205;42.666;23.264;2023-08-01T01:25:30;94085.91;;;21.04;100.00
6345;BME280;3205;42.666;23.264;2023-08-01T01:27:56;94091.75;;;20.99;100.00
6345;BME280;3205;42.666;23.264;2023-08-01T01:30:24;94088.66;;;21.00;100.00
6345;BME280;3205;42.666;23.264;2023-08-01T01:32:50;94085.53;;;21.05;100.00
6345;BME280;3205;42.666;23.264;2023-08-01T01:35:17;94079.28;;;21.12;100.00
6345;BME280;3205;42.666;23.264;2023-08-01T01:37:44;94073.84;;;21.15;100.00
6345;BME280;3205;42.666;23.264;2023-08-01T01:40:11;94076.53;;;21.15;100.00
6345;BME280;3205;42.666;23.264;2023-08-01T01:42:37;94074.97;;;21.18;100.00
6345;BME280;3205;42.666;23.264;2023-08-01T01:45:04;94073.44;;;21.17;100.00
6345;BME280;3205;42.666;23.264;2023-08-01T01:47:30;94077.38;;;21.12;100.00
6345;BME280;3205;42.666;23.264;2023-08-01T01:49:56;94076.38;;;20.99;100.00
6345;BME280;3205;42.666;23.264;2023-08-01T01:52:22;94076.81;;;20.94;100.00
6345;BME280;3205;42.666;23.264;2023-08-01T01:54:49;94080.47;;;20.81;100.00
6345;BME280;3205;42.666;23.264;2023-08-01T01:57:15;94083.53;;;20.80;100.00
6345;BME280;3205;42.666;23.264;2023-08-01T01:59:41;94093.59;;;20.76;100.00
6345;BME280;3205;42.666;23.264;2023-08-01T02:02:07;94088.59;;;20.74;100.00
6345;BME280;3205;42.666;23.264;2023-08-01T02:04:34;94086.78;;;20.64;100.00
6345;BME280;3205;42.666;23.264;2023-08-01T02:07:00;94085.28;;;20.60;100.00
6345;BME280;3205;42.666;23.264;2023-08-01T02:09:26;94083.19;;;20.44;100.00
6345;BME280;3205;42.666;23.264;2023-08-01T02:11:53;94085.16;;;20.40;100.00
6345;BME280;3205;42.666;23.264;2023-08-01T02:14:19;94092.13;;;20.34;100.00
6345;BME280;3205;42.666;23.264;2023-08-01T02:16:45;94084.53;;;20.26;100.00
6345;BME280;3205;42.666;23.264;2023-08-01T02:19:11;94081.38;;;20.34;100.00
6345;BME280;3205;42.666;23.264;2023-08-01T02:21:37;94085.97;;;20.34;100.00
6345;BME280;3205;42.666;23.264;2023-08-01T02:24:03;94085.97;;;20.34;100.00
6345;BME280;3205;42.666;23.264;2023-08-01T02:26:30;94081.69;;;20.40;100.00
6345;BME280;3205;42.666;23.264;2023-08-01T02:28:57;94083.59;;;20.43;100.00
6345;BME280;3205;42.666;23.264;2023-08-01T02:31:23;94070.94;;;20.40;100.00
6345;BME280;3205;42.666;23.264;2023-08-01T02:33:49;94083.66;;;20.36;100.00
6345;BME280;3205;42.666;23.264;2023-08-01T02:36:15;94079.16;;;20.26;100.00
6345;BME280;3205;42.666;23.264;2023-08-01T02:38:42;94079.56;;;20.24;100.00
6345;BME280;3205;42.666;23.264;2023-08-01T02:41:08;94084.63;;;20.15;100.00
6345;BME280;3205;42.666;23.264;2023-08-01T02:43:34;94087.75;;;20.11;100.00
6345;BME280;3205;42.666;23.264;2023-08-01T02:46:02;94082.44;;;20.07;100.00
6345;BME280;3205;42.666;23.264;2023-08-01T02:48:28;94078.31;;;19.96;100.00
6345;BME280;3205;42.666;23.264;2023-08-01T02:50:54;94086.41;;;19.89;100.00
6345;BME280;3205;42.666;23.264;2023-08-01T02:53:20;94083.38;;;19.87;100.00
6345;BME280;3205;42.666;23.264;2023-08-01T02:55:46;94086.19;;;19.73;100.00
6345;BME280;3205;42.666;23.264;2023-08-01T02:58:12;94086.66;;;19.57;100.00
6345;BME280;3205;42.666;23.264;2023-08-01T03:00:38;94086.72;;;19.50;100.00
6345;BME280;3205;42.666;23.264;2023-08-01T03:03:05;94082.13;;;19.54;100.00
6345;BME280;3205;42.666;23.264;2023-08-01T03:05:31;94086.66;;;19.57;100.00
6345;BME280;3205;42.666;23.264;2023-08-01T03:07:57;94086.31;;;19.59;100.00
6345;BME280;3205;42.666;23.264;2023-08-01T03:10:23;94078.63;;;19.57;100.00
6345;BME280;3205;42.666;23.264;2023-08-01T03:12:50;94084.81;;;19.54;100.00
6345;BME280;3205;42.666;23.264;2023-08-01T03:15:16;94073.72;;;19.49;100.00
6345;BME280;3205;42.666;23.264;2023-08-01T03:17:42;94080.69;;;19.39;100.00
6345;BME280;3205;42.666;23.264;2023-08-01T03:20:09;94080.38;;;19.31;100.00
6345;BME280;3205;42.666;23.264;2023-08-01T03:22:37;94084.56;;;19.35;100.00
6345;BME280;3205;42.666;23.264;2023-08-01T03:25:04;94079.22;;;19.32;100.00
6345;BME280;3205;42.666;23.264;2023-08-01T03:27:33;94090.69;;;19.36;100.00
6345;BME280;3205;42.666;23.264;2023-08-01T03:29:59;94088.38;;;19.34;100.00
6345;BME280;3205;42.666;23.264;2023-08-01T03:32:25;94084.16;;;19.37;100.00
6345;BME280;3205;42.666;23.264;2023-08-01T03:34:51;94079.16;;;19.38;100.00
6345;BME280;3205;42.666;23.264;2023-08-01T03:37:18;94089.84;;;19.45;100.00
6345;BME280;3205;42.666;23.264;2023-08-01T03:39:44;94090.59;;;19.49;100.00
6345;BME280;3205;42.666;23.264;2023-08-01T03:42:11;94098.63;;;19.49;100.00
6345;BME280;3205;42.666;23.264;2023-08-01T03:44:37;94088.22;;;19.55;100.00
6345;BME280;3205;42.666;23.264;2023-08-01T03:47:03;94092.75;;;19.65;100.00
6345;BME280;3205;42.666;23.264;2023-08-01T03:49:30;94091.50;;;19.76;100.00
6345;BME280;3205;42.666;23.264;2023-08-01T03:51:56;94083.41;;;19.83;100.00
6345;BME280;3205;42.666;23.264;2023-08-01T03:54:23;94084.81;;;19.98;100.00
6345;BME280;3205;42.666;23.264;2023-08-01T03:56:49;94090.06;;;20.09;100.00
6345;BME280;3205;42.666;23.264;2023-08-01T03:59:15;94094.50;;;20.25;100.00
6345;BME280;3205;42.666;23.264;2023-08-01T04:01:42;94103.50;;;20.45;100.00
6345;BME280;3205;42.666;23.264;2023-08-01T04:04:08;94108.97;;;20.72;100.00
6345;BME280;3205;42.666;23.264;2023-08-01T04:06:34;94102.22;;;20.90;100.00
6345;BME280;3205;42.666;23.264;2023-08-01T04:09:01;94099.19;;;21.14;100.00
6345;BME280;3205;42.666;23.264;2023-08-01T04:13:55;94094.56;;;21.71;100.00
6345;BME280;3205;42.666;23.264;2023-08-01T04:16:21;94099.81;;;21.78;100.00
6345;BME280;3205;42.666;23.264;2023-08-01T04:18:47;94098.25;;;21.54;100.00
6345;BME280;3205;42.666;23.264;2023-08-01T04:21:14;94093.88;;;21.64;100.00
6345;BME280;3205;42.666;23.264;2023-08-01T04:23:40;94106.59;;;22.09;100.00
6345;BME280;3205;42.666;23.264;2023-08-01T04:26:07;94107.72;;;22.73;100.00
6345;BME280;3205;42.666;23.264;2023-08-01T04:28:34;94111.88;;;23.67;100.00
6345;BME280;3205;42.666;23.264;2023-08-01T04:31:00;94101.66;;;24.95;100.00
6345;BME280;3205;42.666;23.264;2023-08-01T04:33:26;94106.53;;;25.90;100.00
6345;BME280;3205;42.666;23.264;2023-08-01T04:35:52;94116.75;;;27.00;100.00
6345;BME280;3205;42.666;23.264;2023-08-01T04:38:19;94109.56;;;27.97;94.23
6345;BME280;3205;42.666;23.264;2023-08-01T04:40:45;94108.19;;;29.12;81.99
6345;BME280;3205;42.666;23.264;2023-08-01T04:43:11;94110.19;;;29.71;75.10
6345;BME280;3205;42.666;23.264;2023-08-01T04:45:38;94114.81;;;29.88;71.75
6345;BME280;3205;42.666;23.264;2023-08-01T04:48:05;94114.31;;;30.08;65.03
6345;BME280;3205;42.666;23.264;2023-08-01T04:50:31;94109.69;;;31.07;61.69
6345;BME280;3205;42.666;23.264;2023-08-01T04:52:57;94119.75;;;32.02;56.70
6345;BME280;3205;42.666;23.264;2023-08-01T04:55:23;94112.97;;;32.12;55.12
6345;BME280;3205;42.666;23.264;2023-08-01T04:57:49;94107.88;;;32.73;53.65
6345;BME280;3205;42.666;23.264;2023-08-01T05:00:17;94116.28;;;32.70;52.86
6345;BME280;3205;42.666;23.264;2023-08-01T05:02:44;94108.16;;;33.46;48.24
6345;BME280;3205;42.666;23.264;2023-08-01T05:05:10;94116.91;;;33.75;48.64
6345;BME280;3205;42.666;23.264;2023-08-01T05:07:36;94114.88;;;34.74;43.96
6345;BME280;3205;42.666;23.264;2023-08-01T05:10:03;94111.41;;;35.75;42.24
6345;BME280;3205;42.666;23.264;2023-08-01T05:12:29;94116.81;;;36.73;38.47
6345;BME280;3205;42.666;23.264;2023-08-01T05:14:55;94116.13;;;37.24;37.47
6345;BME280;3205;42.666;23.264;2023-08-01T05:17:22;94117.75;;;37.49;36.89
6345;BME280;3205;42.666;23.264;2023-08-01T05:19:48;94112.22;;;38.24;35.63
6345;BME280;3205;42.666;23.264;2023-08-01T05:22:14;94117.41;;;39.04;34.26
6345;BME280;3205;42.666;23.264;2023-08-01T05:24:41;94112.88;;;39.01;33.89
6345;BME280;3205;42.666;23.264;2023-08-01T05:27:07;94116.06;;;38.39;33.60
6345;BME280;3205;42.666;23.264;2023-08-01T05:29:33;94117.69;;;38.53;33.95
6345;BME280;3205;42.666;23.264;2023-08-01T05:31:59;94115.00;;;38.72;33.94
6345;BME280;3205;42.666;23.264;2023-08-01T05:34:25;94119.66;;;39.00;33.54
6345;BME280;3205;42.666;23.264;2023-08-01T05:36:52;94127.09;;;38.92;33.75
6345;BME280;3205;42.666;23.264;2023-08-01T05:39:18;94117.34;;;39.47;32.00
6345;BME280;3205;42.666;23.264;2023-08-01T05:41:44;94127.25;;;40.54;30.76
6345;BME280;3205;42.666;23.264;2023-08-01T05:44:10;94123.97;;;40.82;30.39
6345;BME280;3205;42.666;23.264;2023-08-01T05:46:37;94122.63;;;40.31;30.80
6345;BME280;3205;42.666;23.264;2023-08-01T05:49:03;94121.59;;;40.73;29.66
6345;BME280;3205;42.666;23.264;2023-08-01T05:51:29;94119.88;;;41.81;28.87
6345;BME280;3205;42.666;23.264;2023-08-01T05:53:56;94111.31;;;41.79;28.21
6345;BME280;3205;42.666;23.264;2023-08-01T05:56:22;94115.69;;;41.54;28.75
6345;BME280;3205;42.666;23.264;2023-08-01T05:58:48;94118.69;;;40.08;30.00
6345;BME280;3205;42.666;23.264;2023-08-01T06:01:15;94111.97;;;40.61;30.74
6345;BME280;3205;42.666;23.264;2023-08-01T06:03:42;94108.19;;;40.20;29.97
6345;BME280;3205;42.666;23.264;2023-08-01T06:06:08;94106.03;;;39.45;29.17
6345;BME280;3205;42.666;23.264;2023-08-01T06:08:34;94104.09;;;39.76;29.99
6345;BME280;3205;42.666;23.264;2023-08-01T06:11:01;94109.03;;;40.15;29.73
6345;BME280;3205;42.666;23.264;2023-08-01T06:13:27;94106.09;;;40.38;29.78
6345;BME280;3205;42.666;23.264;2023-08-01T06:15:53;94107.34;;;39.93;29.36
6345;BME280;3205;42.666;23.264;2023-08-01T06:18:19;94105.00;;;40.86;29.17
6345;BME280;3205;42.666;23.264;2023-08-01T06:20:45;94108.19;;;40.90;27.85
6345;BME280;3205;42.666;23.264;2023-08-01T06:23:11;94107.81;;;41.78;28.82
6345;BME280;3205;42.666;23.264;2023-08-01T06:25:37;94107.16;;;41.52;26.26
6345;BME280;3205;42.666;23.264;2023-08-01T06:28:04;94103.53;;;41.57;27.68
6345;BME280;3205;42.666;23.264;2023-08-01T06:30:31;94106.44;;;40.61;27.56
6345;BME280;3205;42.666;23.264;2023-08-01T06:32:57;94105.50;;;40.84;27.74
6345;BME280;3205;42.666;23.264;2023-08-01T06:35:23;94105.38;;;41.03;28.62
6345;BME280;3205;42.666;23.264;2023-08-01T06:37:49;94094.94;;;42.01;26.64
6345;BME280;3205;42.666;23.264;2023-08-01T06:40:15;94099.84;;;42.56;26.95
6345;BME280;3205;42.666;23.264;2023-08-01T06:42:41;94093.28;;;42.74;25.97
6345;BME280;3205;42.666;23.264;2023-08-01T06:45:09;94103.31;;;44.13;25.44
6345;BME280;3205;42.666;23.264;2023-08-01T06:47:35;94100.66;;;43.70;25.03
6345;BME280;3205;42.666;23.264;2023-08-01T06:50:01;94099.66;;;43.17;24.79
6345;BME280;3205;42.666;23.264;2023-08-01T06:52:28;94101.06;;;43.89;25.45
6345;BME280;3205;42.666;23.264;2023-08-01T06:54:54;94100.38;;;44.11;25.04
6345;BME280;3205;42.666;23.264;2023-08-01T06:57:20;94102.81;;;44.66;24.50
6345;BME280;3205;42.666;23.264;2023-08-01T06:59:46;94095.91;;;44.82;24.15
6345;BME280;3205;42.666;23.264;2023-08-01T07:02:13;94099.66;;;44.25;24.06
6345;BME280;3205;42.666;23.264;2023-08-01T07:04:40;94099.88;;;43.69;24.63
6345;BME280;3205;42.666;23.264;2023-08-01T07:07:06;94093.00;;;43.20;25.27
6345;BME280;3205;42.666;23.264;2023-08-01T07:09:34;94094.88;;;43.68;25.22
6345;BME280;3205;42.666;23.264;2023-08-01T07:12:00;94097.50;;;43.73;24.83
6345;BME280;3205;42.666;23.264;2023-08-01T07:14:26;94102.59;;;44.12;26.00
6345;BME280;3205;42.666;23.264;2023-08-01T07:16:52;94097.16;;;42.99;25.27
6345;BME280;3205;42.666;23.264;2023-08-01T07:19:19;94086.03;;;43.92;25.38
6345;BME280;3205;42.666;23.264;2023-08-01T07:21:45;94092.00;;;44.25;24.54
6345;BME280;3205;42.666;23.264;2023-08-01T07:24:13;94081.78;;;44.13;25.04
6345;BME280;3205;42.666;23.264;2023-08-01T07:26:40;94080.91;;;43.53;25.13
6345;BME280;3205;42.666;23.264;2023-08-01T07:29:06;94083.00;;;43.25;25.04
6345;BME280;3205;42.666;23.264;2023-08-01T07:31:33;94084.19;;;40.79;27.06
6345;BME280;3205;42.666;23.264;2023-08-01T07:34:00;94076.03;;;40.42;27.44
6345;BME280;3205;42.666;23.264;2023-08-01T07:36:27;94083.75;;;41.01;27.95
6345;BME280;3205;42.666;23.264;2023-08-01T07:38:53;94072.03;;;41.75;26.87
6345;BME280;3205;42.666;23.264;2023-08-01T07:41:19;94068.16;;;42.31;27.31
6345;BME280;3205;42.666;23.264;2023-08-01T07:43:45;94065.41;;;42.39;26.84
6345;BME280;3205;42.666;23.264;2023-08-01T07:46:11;94090.16;;;42.77;26.55
6345;BME280;3205;42.666;23.264;2023-08-01T07:48:38;94077.41;;;43.60;25.75
6345;BME280;3205;42.666;23.264;2023-08-01T07:51:04;94073.63;;;44.37;24.26
6345;BME280;3205;42.666;23.264;2023-08-01T07:53:33;94081.41;;;44.76;24.74
6345;BME280;3205;42.666;23.264;2023-08-01T07:55:59;94079.91;;;44.83;24.05
6345;BME280;3205;42.666;23.264;2023-08-01T07:58:27;94072.44;;;43.23;24.94
6345;BME280;3205;42.666;23.264;2023-08-01T08:00:54;94068.94;;;41.98;26.33
6345;BME280;3205;42.666;23.264;2023-08-01T08:03:21;94063.25;;;42.04;26.72
6345;BME280;3205;42.666;23.264;2023-08-01T08:05:48;94062.63;;;42.94;26.74
6345;BME280;3205;42.666;23.264;2023-08-01T08:08:15;94065.25;;;43.00;26.76
6345;BME280;3205;42.666;23.264;2023-08-01T08:10:41;94054.94;;;43.73;25.54
6345;BME280;3205;42.666;23.264;2023-08-01T08:13:07;94058.19;;;44.29;25.17
6345;BME280;3205;42.666;23.264;2023-08-01T08:15:34;94056.72;;;45.19;25.41
6345;BME280;3205;42.666;23.264;2023-08-01T08:18:01;94054.75;;;44.98;24.12
6345;BME280;3205;42.666;23.264;2023-08-01T08:20:29;94051.84;;;45.74;25.07
6345;BME280;3205;42.666;23.264;2023-08-01T08:22:55;94048.81;;;46.11;23.83
6345;BME280;3205;42.666;23.264;2023-08-01T08:25:22;94044.34;;;46.74;23.69
6345;BME280;3205;42.666;23.264;2023-08-01T08:27:49;94049.31;;;45.07;23.58
6345;BME280;3205;42.666;23.264;2023-08-01T08:30:15;94043.19;;;41.44;26.33
6345;BME280;3205;42.666;23.264;2023-08-01T08:32:42;94045.94;;;41.24;27.35
6345;BME280;3205;42.666;23.264;2023-08-01T08:35:08;94049.72;;;40.88;28.46
6345;BME280;3205;42.666;23.264;2023-08-01T08:37:34;94031.88;;;41.09;27.28
6345;BME280;3205;42.666;23.264;2023-08-01T08:40:03;94029.28;;;42.39;26.63
6345;BME280;3205;42.666;23.264;2023-08-01T08:42:29;94034.09;;;43.01;27.66
6345;BME280;3205;42.666;23.264;2023-08-01T08:44:56;94027.53;;;41.87;27.60
6345;BME280;3205;42.666;23.264;2023-08-01T08:47:25;94022.06;;;41.41;27.76
6345;BME280;3205;42.666;23.264;2023-08-01T08:49:51;94025.34;;;42.34;26.67
6345;BME280;3205;42.666;23.264;2023-08-01T08:52:18;94017.91;;;42.29;26.50
6345;BME280;3205;42.666;23.264;2023-08-01T08:54:45;94012.97;;;43.06;26.54
6345;BME280;3205;42.666;23.264;2023-08-01T08:57:13;94014.44;;;42.16;26.30
6345;BME280;3205;42.666;23.264;2023-08-01T08:59:39;94008.84;;;41.34;27.47
6345;BME280;3205;42.666;23.264;2023-08-01T09:02:06;94010.81;;;42.49;27.35
6345;BME280;3205;42.666;23.264;2023-08-01T09:04:32;94012.34;;;42.92;25.82
6345;BME280;3205;42.666;23.264;2023-08-01T09:07:02;93999.63;;;42.69;26.60
6345;BME280;3205;42.666;23.264;2023-08-01T09:09:28;93997.16;;;42.58;26.80
6345;BME280;3205;42.666;23.264;2023-08-01T09:11:54;94000.97;;;42.75;26.86
6345;BME280;3205;42.666;23.264;2023-08-01T09:14:22;93993.81;;;41.63;27.25
6345;BME280;3205;42.666;23.264;2023-08-01T09:16:48;93995.94;;;40.00;29.69
6345;BME280;3205;42.666;23.264;2023-08-01T09:19:17;93993.03;;;40.37;28.89
6345;BME280;3205;42.666;23.264;2023-08-01T09:21:43;93992.56;;;40.46;30.41
6345;BME280;3205;42.666;23.264;2023-08-01T09:24:11;93982.13;;;40.65;30.54
6345;BME280;3205;42.666;23.264;2023-08-01T09:26:38;93985.63;;;39.56;30.94
6345;BME280;3205;42.666;23.264;2023-08-01T09:29:05;93988.72;;;40.10;30.46
6345;BME280;3205;42.666;23.264;2023-08-01T09:31:32;93982.00;;;41.50;28.36
6345;BME280;3205;42.666;23.264;2023-08-01T09:33:59;93982.50;;;41.61;28.71
6345;BME280;3205;42.666;23.264;2023-08-01T09:36:26;93978.16;;;42.42;27.32
6345;BME280;3205;42.666;23.264;2023-08-01T09:38:58;93975.75;;;42.46;27.48
6345;BME280;3205;42.666;23.264;2023-08-01T09:41:24;93972.09;;;41.41;27.62
6345;BME280;3205;42.666;23.264;2023-08-01T09:43:50;93985.41;;;40.89;27.98
6345;BME280;3205;42.666;23.264;2023-08-01T09:46:17;93970.00;;;40.29;28.11
6345;BME280;3205;42.666;23.264;2023-08-01T09:48:43;93964.38;;;41.27;28.19
6345;BME280;3205;42.666;23.264;2023-08-01T09:51:11;93973.47;;;40.81;28.52
6345;BME280;3205;42.666;23.264;2023-08-01T09:53:47;93952.06;;;41.35;29.05
6345;BME280;3205;42.666;23.264;2023-08-01T09:56:15;93961.94;;;41.23;28.61
6345;BME280;3205;42.666;23.264;2023-08-01T09:58:43;93954.72;;;39.97;29.31
6345;BME280;3205;42.666;23.264;2023-08-01T10:01:09;93950.63;;;39.72;30.54
6345;BME280;3205;42.666;23.264;2023-08-01T10:03:35;93938.53;;;38.75;30.37
6345;BME280;3205;42.666;23.264;2023-08-01T10:06:01;93935.50;;;37.65;32.34
6345;BME280;3205;42.666;23.264;2023-08-01T10:08:28;93942.34;;;35.76;36.16
6345;BME280;3205;42.666;23.264;2023-08-01T10:10:55;93938.38;;;35.39;35.58
6345;BME280;3205;42.666;23.264;2023-08-01T10:13:23;93931.19;;;36.20;35.65
6345;BME280;3205;42.666;23.264;2023-08-01T10:15:50;93934.56;;;35.85;35.86
6345;BME280;3205;42.666;23.264;2023-08-01T10:18:17;93932.09;;;35.00;36.23
6345;BME280;3205;42.666;23.264;2023-08-01T10:20:44;93924.50;;;34.46;38.37
6345;BME280;3205;42.666;23.264;2023-08-01T10:23:12;93915.56;;;33.93;39.76
6345;BME280;3205;42.666;23.264;2023-08-01T10:25:39;93913.94;;;33.28;42.71
6345;BME280;3205;42.666;23.264;2023-08-01T10:28:06;93909.16;;;33.23;51.02
6345;BME280;3205;42.666;23.264;2023-08-01T10:30:32;93913.59;;;33.21;43.56
6345;BME280;3205;42.666;23.264;2023-08-01T10:32:59;93906.09;;;32.85;44.12
6345;BME280;3205;42.666;23.264;2023-08-01T10:35:33;93910.19;;;32.49;47.73
6345;BME280;3205;42.666;23.264;2023-08-01T10:38:04;93901.59;;;32.31;46.84
6345;BME280;3205;42.666;23.264;2023-08-01T10:40:35;93901.81;;;32.08;46.10
6345;BME280;3205;42.666;23.264;2023-08-01T10:43:02;93899.03;;;32.53;53.00
6345;BME280;3205;42.666;23.264;2023-08-01T10:45:29;93893.97;;;32.66;45.01
6345;BME280;3205;42.666;23.264;2023-08-01T10:48:06;93891.16;;;32.86;42.43
6345;BME280;3205;42.666;23.264;2023-08-01T10:50:32;93883.19;;;32.88;38.39
6345;BME280;3205;42.666;23.264;2023-08-01T10:53:02;93887.28;;;33.03;41.18
6345;BME280;3205;42.666;23.264;2023-08-01T10:55:38;93882.53;;;32.98;37.57
6345;BME280;3205;42.666;23.264;2023-08-01T10:58:04;93880.28;;;32.97;37.57
6345;BME280;3205;42.666;23.264;2023-08-01T11:00:32;93870.44;;;33.10;40.49
6345;BME280;3205;42.666;23.264;2023-08-01T11:02:58;93866.59;;;32.97;35.93
6345;BME280;3205;42.666;23.264;2023-08-01T11:05:24;93867.00;;;32.84;36.72
6345;BME280;3205;42.666;23.264;2023-08-01T11:07:55;93856.97;;;32.76;38.89
6345;BME280;3205;42.666;23.264;2023-08-01T11:10:22;93857.72;;;32.76;39.75
6345;BME280;3205;42.666;23.264;2023-08-01T11:12:48;93856.13;;;32.64;41.91
6345;BME280;3205;42.666;23.264;2023-08-01T11:15:15;93856.00;;;32.53;35.56
6345;BME280;3205;42.666;23.264;2023-08-01T11:17:43;93850.38;;;32.37;39.00
6345;BME280;3205;42.666;23.264;2023-08-01T11:20:12;93845.44;;;32.16;39.05
6345;BME280;3205;42.666;23.264;2023-08-01T11:22:49;93842.56;;;32.25;41.40
6345;BME280;3205;42.666;23.264;2023-08-01T11:25:16;93842.97;;;32.18;38.43
6345;BME280;3205;42.666;23.264;2023-08-01T11:27:42;93836.28;;;32.19;39.19
6345;BME280;3205;42.666;23.264;2023-08-01T11:30:08;93825.28;;;32.13;39.44
6345;BME280;3205;42.666;23.264;2023-08-01T11:32:36;93819.78;;;32.08;35.83
6345;BME280;3205;42.666;23.264;2023-08-01T11:35:03;93823.53;;;32.10;37.52
6345;BME280;3205;42.666;23.264;2023-08-01T11:37:30;93820.72;;;32.05;39.72
6345;BME280;3205;42.666;23.264;2023-08-01T11:39:57;93823.25;;;31.88;39.16
6345;BME280;3205;42.666;23.264;2023-08-01T11:42:24;93824.81;;;31.35;35.19
6345;BME280;3205;42.666;23.264;2023-08-01T11:44:50;93819.16;;;31.39;40.07
6345;BME280;3205;42.666;23.264;2023-08-01T11:47:17;93818.00;;;31.45;40.31
6345;BME280;3205;42.666;23.264;2023-08-01T11:49:48;93816.56;;;31.50;39.57
6345;BME280;3205;42.666;23.264;2023-08-01T11:52:25;93815.50;;;31.62;40.12
6345;BME280;3205;42.666;23.264;2023-08-01T11:54:52;93813.28;;;31.66;36.77
6345;BME280;3205;42.666;23.264;2023-08-01T11:57:20;93807.75;;;31.80;37.73
6345;BME280;3205;42.666;23.264;2023-08-01T11:59:46;93804.25;;;31.79;38.26
6345;BME280;3205;42.666;23.264;2023-08-01T12:02:20;93799.59;;;31.85;39.24
6345;BME280;3205;42.666;23.264;2023-08-01T12:04:47;93801.00;;;31.75;40.32
6345;BME280;3205;42.666;23.264;2023-08-01T12:07:14;93796.28;;;31.56;41.75
6345;BME280;3205;42.666;23.264;2023-08-01T12:09:41;93794.22;;;31.51;34.94
6345;BME280;3205;42.666;23.264;2023-08-01T12:12:09;93792.34;;;31.57;36.40
6345;BME280;3205;42.666;23.264;2023-08-01T12:14:39;93792.66;;;31.65;39.67
6345;BME280;3205;42.666;23.264;2023-08-01T12:17:05;93790.47;;;31.68;38.06
6345;BME280;3205;42.666;23.264;2023-08-01T12:19:31;93789.84;;;31.79;36.43
6345;BME280;3205;42.666;23.264;2023-08-01T12:21:59;93779.16;;;31.81;39.99
6345;BME280;3205;42.666;23.264;2023-08-01T12:24:25;93780.00;;;31.87;41.03
6345;BME280;3205;42.666;23.264;2023-08-01T12:26:52;93784.63;;;31.81;36.21
6345;BME280;3205;42.666;23.264;2023-08-01T12:29:18;93778.22;;;31.84;36.56
6345;BME280;3205;42.666;23.264;2023-08-01T12:31:45;93780.66;;;31.82;36.79
6345;BME280;3205;42.666;23.264;2023-08-01T12:34:11;93778.84;;;31.73;36.03
6345;BME280;3205;42.666;23.264;2023-08-01T12:36:37;93779.88;;;31.76;36.44
6345;BME280;3205;42.666;23.264;2023-08-01T12:39:03;93780.25;;;31.64;36.06
6345;BME280;3205;42.666;23.264;2023-08-01T12:41:36;93772.72;;;31.59;36.03
6345;BME280;3205;42.666;23.264;2023-08-01T12:44:03;93772.72;;;31.59;35.72
6345;BME280;3205;42.666;23.264;2023-08-01T12:46:29;93773.47;;;31.59;35.34
6345;BME280;3205;42.666;23.264;2023-08-01T12:48:55;93773.91;;;31.52;34.94
6345;BME280;3205;42.666;23.264;2023-08-01T12:51:21;93764.47;;;31.53;35.26
6345;BME280;3205;42.666;23.264;2023-08-01T12:53:47;93748.81;;;31.54;34.46
6345;BME280;3205;42.666;23.264;2023-08-01T12:56:13;93759.66;;;31.48;34.60
6345;BME280;3205;42.666;23.264;2023-08-01T12:58:39;93753.44;;;31.48;35.83
6345;BME280;3205;42.666;23.264;2023-08-01T13:01:06;93748.06;;;31.53;37.68
6345;BME280;3205;42.666;23.264;2023-08-01T13:03:33;93754.06;;;31.57;36.06
6345;BME280;3205;42.666;23.264;2023-08-01T13:05:59;93753.34;;;31.57;35.58
6345;BME280;3205;42.666;23.264;2023-08-01T13:08:25;93742.41;;;31.57;36.92